< < Back
Terminal Aerodrome Forecast


Current Version              Previous Versions:   1  2  3  4  5  6  7  8  9  

Terminal Aerodrome Forecast

201
FTUS44 KMRX 211138
TAFCHA
TAF
KCHA 211138Z 2112/2212 00000KT 4SM BR BKN005
      TEMPO 2112/2113 6SM BR SCT005 BKN250
     FM211330 25004KT P6SM SCT040 SCT250
     FM211800 28006KT P6SM SCT060
     FM220100 00000KT P6SM BKN250=



Latest METAR

292
SAUS80 KWBC 212200
MTRCHA
METAR KCHA 212153Z 31004KT 10SM SCT055 SCT250 34/20 A3008 RMK AO2 SLP176
T03440200


USA.gov is the U.S. government's official web portal to all federal, state and local government web resources and services.